History Data

Date (GMT-7:00) CPM ACPM uSv/h Latitude Longitude Altitude CO CO2 TVOC HCHO Air Pressure Temperature Humidity Type
2025-11-01 00:58:52 16 17.60 0.080000 41.649648 41.62752893 0 0 0 0 0 0 0 0 STD5.60
2025-11-01 00:53:50 24 19.80 0.120000 41.649648 41.62752893 0 0 0 0 0 0 0 0 STD5.60
2025-11-01 00:48:49 15 20.70 0.075000 41.649648 41.62752893 0 0 0 0 0 0 0 0 STD5.60
2025-11-01 00:43:45 18 20.90 0.090000 41.649648 41.62752893 0 0 0 0 0 0 0 0 STD5.60
2025-11-01 00:38:42 18 19.40 0.090000 41.649648 41.62752893 0 0 0 0 0 0 0 0 STD5.60
2025-11-01 00:33:40 22 16.10 0.110000 41.649648 41.62752893 0 0 0 0 0 0 0 0 STD5.60
2025-11-01 00:28:38 11 15.30 0.055000 41.649648 41.62752893 0 0 0 0 0 0 0 0 STD5.60
2025-11-01 00:23:37 16 18.60 0.080000 41.649648 41.62752893 0 0 0 0 0 0 0 0 STD5.60
2025-11-01 00:18:35 21 17.60 0.105000 41.649648 41.62752893 0 0 0 0 0 0 0 0 STD5.60
2025-11-01 00:13:33 16 16.50 0.080000 41.649648 41.62752893 0 0 0 0 0 0 0 0 STD5.60
2025-11-01 00:08:31 19 18.80 0.095000 41.649648 41.62752893 0 0 0 0 0 0 0 0 STD5.60
2025-11-01 00:03:29 23 20.50 0.115000 41.649648 41.62752893 0 0 0 0 0 0 0 0 STD5.60
2025-10-31 23:58:27 14 19.60 0.070000 41.649648 41.62752893 0 0 0 0 0 0 0 0 STD5.60
2025-10-31 23:53:24 20 17.80 0.100000 41.649648 41.62752893 0 0 0 0 0 0 0 0 STD5.60
2025-10-31 23:48:22 17 16.50 0.085000 41.649648 41.62752893 0 0 0 0 0 0 0 0 STD5.60
2025-10-31 23:43:19 7 18.40 0.035000 41.649648 41.62752893 0 0 0 0 0 0 0 0 STD5.60
2025-10-31 23:38:16 20 18.90 0.100000 41.649648 41.62752893 0 0 0 0 0 0 0 0 STD5.60
2025-10-31 23:33:14 18 16.20 0.090000 41.649648 41.62752893 0 0 0 0 0 0 0 0 STD5.60
2025-10-31 23:28:12 13 15.20 0.065000 41.649648 41.62752893 0 0 0 0 0 0 0 0 STD5.60
2025-10-31 23:23:11 18 17.00 0.090000 41.649648 41.62752893 0 0 0 0 0 0 0 0 STD5.60
2025-10-31 23:18:08 16 20.30 0.080000 41.649648 41.62752893 0 0 0 0 0 0 0 0 STD5.60
2025-10-31 23:13:07 23 20.90 0.115000 41.649648 41.62752893 0 0 0 0 0 0 0 0 STD5.60
2025-10-31 23:08:05 20 19.10 0.100000 41.649648 41.62752893 0 0 0 0 0 0 0 0 STD5.60
2025-10-31 23:03:02 12 17.50 0.060000 41.649648 41.62752893 0 0 0 0 0 0 0 0 STD5.60
2025-10-31 22:58:00 18 20.90 0.090000 41.649648 41.62752893 0 0 0 0 0 0 0 0 STD5.60
2025-10-31 22:52:58 24 20.50 0.120000 41.649648 41.62752893 0 0 0 0 0 0 0 0 STD5.60
2025-10-31 22:47:56 22 17.90 0.110000 41.649648 41.62752893 0 0 0 0 0 0 0 0 STD5.60
2025-10-31 22:42:52 19 19.60 0.095000 41.649648 41.62752893 0 0 0 0 0 0 0 0 STD5.60
2025-10-31 22:37:51 25 19.30 0.125000 41.649648 41.62752893 0 0 0 0 0 0 0 0 STD5.60
2025-10-31 22:32:49 16 19.90 0.080000 41.649648 41.62752893 0 0 0 0 0 0 0 0 STD5.60
2025-10-31 22:27:47 23 20.10 0.115000 41.649648 41.62752893 0 0 0 0 0 0 0 0 STD5.60
2025-10-31 22:22:44 21 18.00 0.105000 41.649648 41.62752893 0 0 0 0 0 0 0 0 STD5.60
2025-10-31 22:17:42 19 18.90 0.095000 41.649648 41.62752893 0 0 0 0 0 0 0 0 STD5.60
2025-10-31 22:12:41 15 19.60 0.075000 41.649648 41.62752893 0 0 0 0 0 0 0 0 STD5.60
2025-10-31 22:07:39 19 17.90 0.095000 41.649648 41.62752893 0 0 0 0 0 0 0 0 STD5.60
2025-10-31 22:02:36 18 18.80 0.090000 41.649648 41.62752893 0 0 0 0 0 0 0 0 STD5.60
2025-10-31 21:57:35 14 21.10 0.070000 41.649648 41.62752893 0 0 0 0 0 0 0 0 STD5.60
2025-10-31 21:52:32 25 18.80 0.125000 41.649648 41.62752893 0 0 0 0 0 0 0 0 STD5.60
2025-10-31 21:47:30 11 17.00 0.055000 41.649648 41.62752893 0 0 0 0 0 0 0 0 STD5.60
2025-10-31 21:42:25 18 18.60 0.090000 41.649648 41.62752893 0 0 0 0 0 0 0 0 STD5.60
2025-10-31 21:37:23 19 18.90 0.095000 41.649648 41.62752893 0 0 0 0 0 0 0 0 STD5.60
2025-10-31 21:32:21 13 18.20 0.065000 41.649648 41.62752893 0 0 0 0 0 0 0 0 STD5.60
2025-10-31 21:27:19 15 17.60 0.075000 41.649648 41.62752893 0 0 0 0 0 0 0 0 STD5.60
2025-10-31 21:22:17 17 17.70 0.085000 41.649648 41.62752893 0 0 0 0 0 0 0 0 STD5.60
2025-10-31 21:17:14 19 18.50 0.095000 41.649648 41.62752893 0 0 0 0 0 0 0 0 STD5.60
2025-10-31 21:12:13 21 18.80 0.105000 41.649648 41.62752893 0 0 0 0 0 0 0 0 STD5.60
2025-10-31 21:07:11 12 16.80 0.060000 41.649648 41.62752893 0 0 0 0 0 0 0 0 STD5.60
2025-10-31 21:02:08 17 14.40 0.085000 41.649648 41.62752893 0 0 0 0 0 0 0 0 STD5.60
2025-10-31 20:57:07 10 14.90 0.050000 41.649648 41.62752893 0 0 0 0 0 0 0 0 STD5.60
2025-10-31 20:52:04 19 16.50 0.095000 41.649648 41.62752893 0 0 0 0 0 0 0 0 STD5.60
2025-10-31 20:47:03 17 18.30 0.085000 41.649648 41.62752893 0 0 0 0 0 0 0 0 STD5.60
2025-10-31 20:41:59 19 17.80 0.095000 41.649648 41.62752893 0 0 0 0 0 0 0 0 STD5.60
2025-10-31 20:36:56 15 15.80 0.075000 41.649648 41.62752893 0 0 0 0 0 0 0 0 STD5.60
2025-10-31 20:31:54 18 18.10 0.090000 41.649648 41.62752893 0 0 0 0 0 0 0 0 STD5.60
2025-10-31 20:26:53 19 18.80 0.095000 41.649648 41.62752893 0 0 0 0 0 0 0 0 STD5.60
2025-10-31 20:21:50 20 17.80 0.100000 41.649648 41.62752893 0 0 0 0 0 0 0 0 STD5.60
2025-10-31 20:16:49 16 16.10 0.080000 41.649648 41.62752893 0 0 0 0 0 0 0 0 STD5.60
2025-10-31 20:11:47 19 15.00 0.095000 41.649648 41.62752893 0 0 0 0 0 0 0 0 STD5.60
2025-10-31 20:06:45 17 18.00 0.085000 41.649648 41.62752893 0 0 0 0 0 0 0 0 STD5.60
2025-10-31 20:01:43 26 19.00 0.130000 41.649648 41.62752893 0 0 0 0 0 0 0 0 STD5.60
2025-10-31 19:56:40 15 17.40 0.075000 41.649648 41.62752893 0 0 0 0 0 0 0 0 STD5.60
2025-10-31 19:51:39 14 16.80 0.070000 41.649648 41.62752893 0 0 0 0 0 0 0 0 STD5.60
2025-10-31 19:46:36 23 17.50 0.115000 41.649648 41.62752893 0 0 0 0 0 0 0 0 STD5.60
2025-10-31 19:41:33 11 18.80 0.055000 41.649648 41.62752893 0 0 0 0 0 0 0 0 STD5.60
2025-10-31 19:36:31 19 17.50 0.095000 41.649648 41.62752893 0 0 0 0 0 0 0 0 STD5.60
2025-10-31 19:31:30 27 16.90 0.135000 41.649648 41.62752893 0 0 0 0 0 0 0 0 STD5.60
2025-10-31 19:26:27 16 18.80 0.080000 41.649648 41.62752893 0 0 0 0 0 0 0 0 STD5.60
2025-10-31 19:21:25 19 17.60 0.095000 41.649648 41.62752893 0 0 0 0 0 0 0 0 STD5.60
2025-10-31 19:16:23 16 17.00 0.080000 41.649648 41.62752893 0 0 0 0 0 0 0 0 STD5.60
2025-10-31 19:11:22 12 18.20 0.060000 41.649648 41.62752893 0 0 0 0 0 0 0 0 STD5.60
2025-10-31 19:06:19 13 18.40 0.065000 41.649648 41.62752893 0 0 0 0 0 0 0 0 STD5.60
2025-10-31 19:01:16 18 17.60 0.090000 41.649648 41.62752893 0 0 0 0 0 0 0 0 STD5.60
2025-10-31 18:56:15 17 15.80 0.085000 41.649648 41.62752893 0 0 0 0 0 0 0 0 STD5.60
2025-10-31 18:51:14 15 15.60 0.075000 41.649648 41.62752893 0 0 0 0 0 0 0 0 STD5.60
2025-10-31 18:46:11 16 17.10 0.080000 41.649648 41.62752893 0 0 0 0 0 0 0 0 STD5.60
2025-10-31 18:41:07 20 17.50 0.100000 41.649648 41.62752893 0 0 0 0 0 0 0 0 STD5.60
2025-10-31 18:36:05 14 17.70 0.070000 41.649648 41.62752893 0 0 0 0 0 0 0 0 STD5.60
2025-10-31 18:31:03 19 20.70 0.095000 41.649648 41.62752893 0 0 0 0 0 0 0 0 STD5.60
2025-10-31 18:26:01 20 21.00 0.100000 41.649648 41.62752893 0 0 0 0 0 0 0 0 STD5.60
2025-10-31 18:20:58 25 19.30 0.125000 41.649648 41.62752893 0 0 0 0 0 0 0 0 STD5.60
2025-10-31 18:15:56 18 19.60 0.090000 41.649648 41.62752893 0 0 0 0 0 0 0 0 STD5.60
2025-10-31 18:10:54 22 18.90 0.110000 41.649648 41.62752893 0 0 0 0 0 0 0 0 STD5.60
2025-10-31 18:05:53 21 17.20 0.105000 41.649648 41.62752893 0 0 0 0 0 0 0 0 STD5.60
2025-10-31 18:00:54 14 16.10 0.070000 41.649648 41.62752893 0 0 0 0 0 0 0 0 STD5.60
2025-10-31 17:55:48 12 16.40 0.060000 41.649648 41.62752893 0 0 0 0 0 0 0 0 STD5.60
2025-10-31 17:50:46 16 16.40 0.080000 41.649648 41.62752893 0 0 0 0 0 0 0 0 STD5.60
2025-10-31 17:45:44 11 16.90 0.055000 41.649648 41.62752893 0 0 0 0 0 0 0 0 STD5.60
2025-10-31 17:40:43 23 18.80 0.115000 41.649648 41.62752893 0 0 0 0 0 0 0 0 STD5.60
2025-10-31 17:35:38 17 17.70 0.085000 41.649648 41.62752893 0 0 0 0 0 0 0 0 STD5.60
2025-10-31 17:30:36 18 16.80 0.090000 41.649648 41.62752893 0 0 0 0 0 0 0 0 STD5.60
2025-10-31 17:25:33 18 18.00 0.090000 41.649648 41.62752893 0 0 0 0 0 0 0 0 STD5.60
2025-10-31 17:20:31 23 18.60 0.115000 41.649648 41.62752893 0 0 0 0 0 0 0 0 STD5.60
2025-10-31 17:15:29 16 19.10 0.080000 41.649648 41.62752893 0 0 0 0 0 0 0 0 STD5.60
2025-10-31 17:10:27 16 17.90 0.080000 41.649648 41.62752893 0 0 0 0 0 0 0 0 STD5.60
2025-10-31 17:00:23 18 19.30 0.090000 41.649648 41.62752893 0 0 0 0 0 0 0 0 STD5.60
2025-10-31 16:55:24 22 20.30 0.110000 41.649648 41.62752893 0 0 0 0 0 0 0 0 STD5.60
2025-10-31 16:50:19 22 18.40 0.110000 41.649648 41.62752893 0 0 0 0 0 0 0 0 STD5.60
2025-10-31 16:45:17 17 19.00 0.085000 41.649648 41.62752893 0 0 0 0 0 0 0 0 STD5.60
2025-10-31 16:40:13 26 19.80 0.130000 41.649648 41.62752893 0 0 0 0 0 0 0 0 STD5.60
2025-10-31 16:35:12 20 16.20 0.100000 41.649648 41.62752893 0 0 0 0 0 0 0 0 STD5.60
2025-10-31 16:30:10 13 15.40 0.065000 41.649648 41.62752893 0 0 0 0 0 0 0 0 STD5.60
2025-10-31 16:25:07 16 16.40 0.080000 41.649648 41.62752893 0 0 0 0 0 0 0 0 STD5.60
2025-10-31 16:20:05 21 18.20 0.105000 41.649648 41.62752893 0 0 0 0 0 0 0 0 STD5.60
2025-10-31 16:15:04 24 18.60 0.120000 41.649648 41.62752893 0 0 0 0 0 0 0 0 STD5.60
2025-10-31 16:10:01 19 17.20 0.095000 41.649648 41.62752893 0 0 0 0 0 0 0 0 STD5.60
2025-10-31 16:04:59 19 17.70 0.095000 41.649648 41.62752893 0 0 0 0 0 0 0 0 STD5.60
2025-10-31 15:59:56 23 18.70 0.115000 41.649648 41.62752893 0 0 0 0 0 0 0 0 STD5.60
2025-10-31 15:54:54 17 16.70 0.085000 41.649648 41.62752893 0 0 0 0 0 0 0 0 STD5.60
2025-10-31 15:49:52 14 16.40 0.070000 41.649648 41.62752893 0 0 0 0 0 0 0 0 STD5.60
2025-10-31 15:44:50 15 17.90 0.075000 41.649648 41.62752893 0 0 0 0 0 0 0 0 STD5.60
2025-10-31 15:39:45 14 17.80 0.070000 41.649648 41.62752893 0 0 0 0 0 0 0 0 STD5.60
2025-10-31 15:34:43 21 17.60 0.105000 41.649648 41.62752893 0 0 0 0 0 0 0 0 STD5.60
2025-10-31 15:29:41 17 17.60 0.085000 41.649648 41.62752893 0 0 0 0 0 0 0 0 STD5.60
2025-10-31 15:24:39 16 17.10 0.080000 41.649648 41.62752893 0 0 0 0 0 0 0 0 STD5.60
2025-10-31 15:19:37 21 17.40 0.105000 41.649648 41.62752893 0 0 0 0 0 0 0 0 STD5.60
2025-10-31 15:14:34 14 19.20 0.070000 41.649648 41.62752893 0 0 0 0 0 0 0 0 STD5.60
2025-10-31 15:09:32 20 19.10 0.100000 41.649648 41.62752893 0 0 0 0 0 0 0 0 STD5.60
2025-10-31 15:04:30 18 18.20 0.090000 41.649648 41.62752893 0 0 0 0 0 0 0 0 STD5.60
2025-10-31 14:59:28 14 17.90 0.070000 41.649648 41.62752893 0 0 0 0 0 0 0 0 STD5.60
2025-10-31 14:54:26 12 18.80 0.060000 41.649648 41.62752893 0 0 0 0 0 0 0 0 STD5.60
2025-10-31 14:49:24 18 19.10 0.090000 41.649648 41.62752893 0 0 0 0 0 0 0 0 STD5.60
2025-10-31 14:44:23 16 18.10 0.080000 41.649648 41.62752893 0 0 0 0 0 0 0 0 STD5.60
2025-10-31 14:39:19 20 16.40 0.100000 41.649648 41.62752893 0 0 0 0 0 0 0 0 STD5.60
2025-10-31 14:34:16 9 16.90 0.045000 41.649648 41.62752893 0 0 0 0 0 0 0 0 STD5.60
2025-10-31 14:29:15 15 18.00 0.075000 41.649648 41.62752893 0 0 0 0 0 0 0 0 STD5.60
2025-10-31 14:24:12 21 18.00 0.105000 41.649648 41.62752893 0 0 0 0 0 0 0 0 STD5.60
2025-10-31 14:19:10 20 18.00 0.100000 41.649648 41.62752893 0 0 0 0 0 0 0 0 STD5.60
2025-10-31 14:14:08 18 17.70 0.090000 41.649648 41.62752893 0 0 0 0 0 0 0 0 STD5.60
2025-10-31 14:09:06 19 19.90 0.095000 41.649648 41.62752893 0 0 0 0 0 0 0 0 STD5.60
2025-10-31 14:04:04 19 18.80 0.095000 41.649648 41.62752893 0 0 0 0 0 0 0 0 STD5.60
2025-10-31 13:59:02 13 19.00 0.065000 41.649648 41.62752893 0 0 0 0 0 0 0 0 STD5.60
2025-10-31 13:54:00 24 19.50 0.120000 41.649648 41.62752893 0 0 0 0 0 0 0 0 STD5.60
2025-10-31 13:48:58 22 17.30 0.110000 41.649648 41.62752893 0 0 0 0 0 0 0 0 STD5.60
2025-10-31 13:43:56 23 19.00 0.115000 41.649648 41.62752893 0 0 0 0 0 0 0 0 STD5.60
2025-10-31 13:38:53 25 20.00 0.125000 41.649648 41.62752893 0 0 0 0 0 0 0 0 STD5.60
2025-10-31 13:33:51 28 18.10 0.140000 41.649648 41.62752893 0 0 0 0 0 0 0 0 STD5.60
2025-10-31 13:28:49 15 17.60 0.075000 41.649648 41.62752893 0 0 0 0 0 0 0 0 STD5.60
2025-10-31 13:23:46 16 17.10 0.080000 41.649648 41.62752893 0 0 0 0 0 0 0 0 STD5.60
2025-10-31 13:18:44 16 16.70 0.080000 41.649648 41.62752893 0 0 0 0 0 0 0 0 STD5.60
2025-10-31 13:13:42 17 17.30 0.085000 41.649648 41.62752893 0 0 0 0 0 0 0 0 STD5.60
2025-10-31 13:08:40 11 15.50 0.055000 41.649648 41.62752893 0 0 0 0 0 0 0 0 STD5.60
2025-10-31 13:03:38 11 16.80 0.055000 41.649648 41.62752893 0 0 0 0 0 0 0 0 STD5.60
2025-10-31 12:58:36 23 18.80 0.115000 41.649648 41.62752893 0 0 0 0 0 0 0 0 STD5.60
2025-10-31 12:53:35 20 16.30 0.100000 41.649648 41.62752893 0 0 0 0 0 0 0 0 STD5.60
2025-10-31 12:48:33 12 13.50 0.060000 41.649648 41.62752893 0 0 0 0 0 0 0 0 STD5.60
2025-10-31 12:43:31 14 17.60 0.070000 41.649648 41.62752893 0 0 0 0 0 0 0 0 STD5.60
2025-10-31 12:38:26 27 20.90 0.135000 41.649648 41.62752893 0 0 0 0 0 0 0 0 STD5.60
2025-10-31 12:33:25 19 18.00 0.095000 41.649648 41.62752893 0 0 0 0 0 0 0 0 STD5.60
2025-10-31 12:28:23 18 16.60 0.090000 41.649648 41.62752893 0 0 0 0 0 0 0 0 STD5.60
2025-10-31 12:23:21 9 18.40 0.045000 41.649648 41.62752893 0 0 0 0 0 0 0 0 STD5.60
2025-10-31 12:18:19 17 17.90 0.085000 41.649648 41.62752893 0 0 0 0 0 0 0 0 STD5.60
2025-10-31 12:13:17 19 15.90 0.095000 41.649648 41.62752893 0 0 0 0 0 0 0 0 STD5.60
2025-10-31 12:08:15 18 15.40 0.090000 41.649648 41.62752893 0 0 0 0 0 0 0 0 STD5.60
2025-10-31 12:03:13 7 15.70 0.035000 41.649648 41.62752893 0 0 0 0 0 0 0 0 STD5.60
2025-10-31 11:58:11 24 18.00 0.120000 41.649648 41.62752893 0 0 0 0 0 0 0 0 STD5.60
2025-10-31 11:53:09 17 19.20 0.085000 41.649648 41.62752893 0 0 0 0 0 0 0 0 STD5.60
2025-10-31 11:48:06 11 12.70 0.055000 41.649648 41.62752893 0 0 0 0 0 0 0 0 STD5.60
2025-10-31 11:43:05 26 3.40 0.130000 41.649648 41.62752893 0 0 0 0 0 0 0 0 STD5.60
2025-10-31 11:38:01 22 17.00 0.110000 41.649648 41.62752893 0 0 0 0 0 0 0 0 STD5.60
2025-10-31 11:32:59 18 16.60 0.090000 41.649648 41.62752893 0 0 0 0 0 0 0 0 STD5.60
2025-10-31 11:27:56 19 19.30 0.095000 41.649648 41.62752893 0 0 0 0 0 0 0 0 STD5.60
2025-10-31 11:22:54 19 20.20 0.095000 41.649648 41.62752893 0 0 0 0 0 0 0 0 STD5.60
2025-10-31 11:17:52 16 20.00 0.080000 41.649648 41.62752893 0 0 0 0 0 0 0 0 STD5.60
2025-10-31 11:12:50 18 18.80 0.090000 41.649648 41.62752893 0 0 0 0 0 0 0 0 STD5.60
2025-10-31 11:07:49 20 17.20 0.100000 41.649648 41.62752893 0 0 0 0 0 0 0 0 STD5.60
2025-10-31 11:02:46 25 17.20 0.125000 41.649648 41.62752893 0 0 0 0 0 0 0 0 STD5.60
2025-10-31 10:57:44 17 17.70 0.085000 41.649648 41.62752893 0 0 0 0 0 0 0 0 STD5.60
2025-10-31 10:52:42 18 18.40 0.090000 41.649648 41.62752893 0 0 0 0 0 0 0 0 STD5.60
2025-10-31 10:47:40 26 18.60 0.130000 41.649648 41.62752893 0 0 0 0 0 0 0 0 STD5.60
2025-10-31 10:42:39 22 17.60 0.110000 41.649648 41.62752893 0 0 0 0 0 0 0 0 STD5.60
2025-10-31 10:37:34 23 17.00 0.115000 41.649648 41.62752893 0 0 0 0 0 0 0 0 STD5.60
2025-10-31 10:32:33 23 19.70 0.115000 41.649648 41.62752893 0 0 0 0 0 0 0 0 STD5.60
2025-10-31 10:27:30 17 18.10 0.085000 41.649648 41.62752893 0 0 0 0 0 0 0 0 STD5.60
2025-10-31 10:22:28 16 16.20 0.080000 41.649648 41.62752893 0 0 0 0 0 0 0 0 STD5.60
2025-10-31 10:17:26 23 18.90 0.115000 41.649648 41.62752893 0 0 0 0 0 0 0 0 STD5.60
2025-10-31 10:12:24 20 17.60 0.100000 41.649648 41.62752893 0 0 0 0 0 0 0 0 STD5.60
2025-10-31 10:07:22 10 16.70 0.050000 41.649648 41.62752893 0 0 0 0 0 0 0 0 STD5.60
2025-10-31 10:02:21 16 15.80 0.080000 41.649648 41.62752893 0 0 0 0 0 0 0 0 STD5.60
2025-10-31 09:57:18 14 16.70 0.070000 41.649648 41.62752893 0 0 0 0 0 0 0 0 STD5.60
2025-10-31 09:52:16 19 17.20 0.095000 41.649648 41.62752893 0 0 0 0 0 0 0 0 STD5.60
2025-10-31 09:47:14 15 15.70 0.075000 41.649648 41.62752893 0 0 0 0 0 0 0 0 STD5.60
2025-10-31 09:42:12 18 15.70 0.090000 41.649648 41.62752893 0 0 0 0 0 0 0 0 STD5.60
2025-10-31 09:37:07 20 16.30 0.100000 41.649648 41.62752893 0 0 0 0 0 0 0 0 STD5.60
2025-10-31 09:32:05 12 17.50 0.060000 41.649648 41.62752893 0 0 0 0 0 0 0 0 STD5.60
2025-10-31 09:27:02 20 17.90 0.100000 41.649648 41.62752893 0 0 0 0 0 0 0 0 STD5.60
2025-10-31 09:22:00 16 17.50 0.080000 41.649648 41.62752893 0 0 0 0 0 0 0 0 STD5.60
2025-10-31 09:16:59 23 17.70 0.115000 41.649648 41.62752893 0 0 0 0 0 0 0 0 STD5.60
2025-10-31 09:11:57 23 18.80 0.115000 41.649648 41.62752893 0 0 0 0 0 0 0 0 STD5.60
2025-10-31 09:06:55 11 16.70 0.055000 41.649648 41.62752893 0 0 0 0 0 0 0 0 STD5.60
2025-10-31 09:01:53 12 16.60 0.060000 41.649648 41.62752893 0 0 0 0 0 0 0 0 STD5.60
2025-10-31 08:56:51 18 18.20 0.090000 41.649648 41.62752893 0 0 0 0 0 0 0 0 STD5.60
2025-10-31 08:51:50 24 17.40 0.120000 41.649648 41.62752893 0 0 0 0 0 0 0 0 STD5.60
2025-10-31 08:46:47 21 15.50 0.105000 41.649648 41.62752893 0 0 0 0 0 0 0 0 STD5.60
2025-10-31 08:41:45 15 14.80 0.075000 41.649648 41.62752893 0 0 0 0 0 0 0 0 STD5.60
2025-10-31 08:36:41 17 16.50 0.085000 41.649648 41.62752893 0 0 0 0 0 0 0 0 STD5.60
2025-10-31 08:31:39 22 19.40 0.110000 41.649648 41.62752893 0 0 0 0 0 0 0 0 STD5.60
2025-10-31 08:26:37 24 19.10 0.120000 41.649648 41.62752893 0 0 0 0 0 0 0 0 STD5.60
2025-10-31 08:21:35 11 16.60 0.055000 41.649648 41.62752893 0 0 0 0 0 0 0 0 STD5.60
2025-10-31 08:16:33 11 17.80 0.055000 41.649648 41.62752893 0 0 0 0 0 0 0 0 STD5.60
2025-10-31 08:11:30 19 19.90 0.095000 41.649648 41.62752893 0 0 0 0 0 0 0 0 STD5.60
2025-10-31 08:06:28 17 17.50 0.085000 41.649648 41.62752893 0 0 0 0 0 0 0 0 STD5.60
2025-10-31 08:01:26 17 16.30 0.085000 41.649648 41.62752893 0 0 0 0 0 0 0 0 STD5.60
2025-10-31 07:56:25 18 16.90 0.090000 41.649648 41.62752893 0 0 0 0 0 0 0 0 STD5.60
2025-10-31 07:51:22 14 16.30 0.070000 41.649648 41.62752893 0 0 0 0 0 0 0 0 STD5.60
2025-10-31 07:46:20 18 16.50 0.090000 41.649648 41.62752893 0 0 0 0 0 0 0 0 STD5.60
2025-10-31 07:41:18 20 19.00 0.100000 41.649648 41.62752893 0 0 0 0 0 0 0 0 STD5.60
2025-10-31 07:36:14 24 17.50 0.120000 41.649648 41.62752893 0 0 0 0 0 0 0 0 STD5.60
2025-10-31 07:31:12 12 17.30 0.060000 41.649648 41.62752893 0 0 0 0 0 0 0 0 STD5.60
2025-10-31 07:26:09 21 17.40 0.105000 41.649648 41.62752893 0 0 0 0 0 0 0 0 STD5.60
2025-10-31 07:21:07 23 17.50 0.115000 41.649648 41.62752893 0 0 0 0 0 0 0 0 STD5.60
2025-10-31 07:16:05 16 19.00 0.080000 41.649648 41.62752893 0 0 0 0 0 0 0 0 STD5.60
2025-10-31 07:11:02 15 17.70 0.075000 41.649648 41.62752893 0 0 0 0 0 0 0 0 STD5.60
2025-10-31 07:06:01 20 17.80 0.100000 41.649648 41.62752893 0 0 0 0 0 0 0 0 STD5.60
2025-10-31 07:00:59 15 18.40 0.075000 41.649648 41.62752893 0 0 0 0 0 0 0 0 STD5.60
2025-10-31 06:55:56 15 19.40 0.075000 41.649648 41.62752893 0 0 0 0 0 0 0 0 STD5.60
2025-10-31 06:50:54 17 20.80 0.085000 41.649648 41.62752893 0 0 0 0 0 0 0 0 STD5.60
2025-10-31 06:45:52 20 20.10 0.100000 41.649648 41.62752893 0 0 0 0 0 0 0 0 STD5.60
2025-10-31 06:40:49 17 16.70 0.085000 41.649648 41.62752893 0 0 0 0 0 0 0 0 STD5.60
2025-10-31 06:35:45 12 17.40 0.060000 41.649648 41.62752893 0 0 0 0 0 0 0 0 STD5.60
2025-10-31 06:30:43 19 19.70 0.095000 41.649648 41.62752893 0 0 0 0 0 0 0 0 STD5.60
2025-10-31 06:25:40 21 18.60 0.105000 41.649648 41.62752893 0 0 0 0 0 0 0 0 STD5.60
2025-10-31 06:20:38 11 17.10 0.055000 41.649648 41.62752893 0 0 0 0 0 0 0 0 STD5.60
2025-10-31 06:15:36 17 18.30 0.085000 41.649648 41.62752893 0 0 0 0 0 0 0 0 STD5.60
2025-10-31 06:10:34 14 19.70 0.070000 41.649648 41.62752893 0 0 0 0 0 0 0 0 STD5.60
2025-10-31 06:05:31 21 18.50 0.105000 41.649648 41.62752893 0 0 0 0 0 0 0 0 STD5.60
2025-10-31 06:00:29 13 18.40 0.065000 41.649648 41.62752893 0 0 0 0 0 0 0 0 STD5.60
2025-10-31 05:55:27 22 18.20 0.110000 41.649648 41.62752893 0 0 0 0 0 0 0 0 STD5.60
2025-10-31 05:50:25 17 16.50 0.085000 41.649648 41.62752893 0 0 0 0 0 0 0 0 STD5.60
2025-10-31 05:45:22 12 17.80 0.060000 41.649648 41.62752893 0 0 0 0 0 0 0 0 STD5.60
2025-10-31 05:40:20 23 18.20 0.115000 41.649648 41.62752893 0 0 0 0 0 0 0 0 STD5.60
2025-10-31 05:35:16 17 18.00 0.085000 41.649648 41.62752893 0 0 0 0 0 0 0 0 STD5.60
2025-10-31 05:30:14 22 17.70 0.110000 41.649648 41.62752893 0 0 0 0 0 0 0 0 STD5.60
2025-10-31 05:25:12 16 16.90 0.080000 41.649648 41.62752893 0 0 0 0 0 0 0 0 STD5.60
2025-10-31 05:20:10 21 17.40 0.105000 41.649648 41.62752893 0 0 0 0 0 0 0 0 STD5.60
2025-10-31 05:15:08 17 17.40 0.085000 41.649648 41.62752893 0 0 0 0 0 0 0 0 STD5.60
2025-10-31 05:10:06 14 17.50 0.070000 41.649648 41.62752893 0 0 0 0 0 0 0 0 STD5.60
2025-10-31 05:05:03 17 17.40 0.085000 41.649648 41.62752893 0 0 0 0 0 0 0 0 STD5.60
2025-10-31 05:00:02 18 18.40 0.090000 41.649648 41.62752893 0 0 0 0 0 0 0 0 STD5.60
2025-10-31 04:55:00 19 19.00 0.095000 41.649648 41.62752893 0 0 0 0 0 0 0 0 STD5.60
2025-10-31 04:49:57 18 18.30 0.090000 41.649648 41.62752893 0 0 0 0 0 0 0 0 STD5.60
2025-10-31 04:44:56 16 17.00 0.080000 41.649648 41.62752893 0 0 0 0 0 0 0 0 STD5.60
2025-10-31 04:39:53 15 16.30 0.075000 41.649648 41.62752893 0 0 0 0 0 0 0 0 STD5.60
2025-10-31 04:34:49 19 16.10 0.095000 41.649648 41.62752893 0 0 0 0 0 0 0 0 STD5.60
2025-10-31 04:29:47 13 17.70 0.065000 41.649648 41.62752893 0 0 0 0 0 0 0 0 STD5.60
2025-10-31 04:24:44 23 18.90 0.115000 41.649648 41.62752893 0 0 0 0 0 0 0 0 STD5.60
2025-10-31 04:19:42 17 18.30 0.085000 41.649648 41.62752893 0 0 0 0 0 0 0 0 STD5.60
2025-10-31 04:14:40 17 19.10 0.085000 41.649648 41.62752893 0 0 0 0 0 0 0 0 STD5.60
2025-10-31 04:09:38 18 20.30 0.090000 41.649648 41.62752893 0 0 0 0 0 0 0 0 STD5.60
2025-10-31 04:04:35 14 20.00 0.070000 41.649648 41.62752893 0 0 0 0 0 0 0 0 STD5.60
2025-10-31 03:59:33 23 19.10 0.115000 41.649648 41.62752893 0 0 0 0 0 0 0 0 STD5.60
2025-10-31 03:54:31 21 17.80 0.105000 41.649648 41.62752893 0 0 0 0 0 0 0 0 STD5.60
2025-10-31 03:49:29 15 16.50 0.075000 41.649648 41.62752893 0 0 0 0 0 0 0 0 STD5.60
2025-10-31 03:44:27 19 18.40 0.095000 41.649648 41.62752893 0 0 0 0 0 0 0 0 STD5.60
2025-10-31 03:39:25 18 19.60 0.090000 41.649648 41.62752893 0 0 0 0 0 0 0 0 STD5.60
2025-10-31 03:34:21 18 18.30 0.090000 41.649648 41.62752893 0 0 0 0 0 0 0 0 STD5.60
2025-10-31 03:29:19 14 17.50 0.070000 41.649648 41.62752893 0 0 0 0 0 0 0 0 STD5.60
2025-10-31 03:24:16 13 16.90 0.065000 41.649648 41.62752893 0 0 0 0 0 0 0 0 STD5.60
2025-10-31 03:19:14 21 17.90 0.105000 41.649648 41.62752893 0 0 0 0 0 0 0 0 STD5.60
2025-10-31 03:14:11 19 19.70 0.095000 41.649648 41.62752893 0 0 0 0 0 0 0 0 STD5.60
2025-10-31 03:09:09 17 19.70 0.085000 41.649648 41.62752893 0 0 0 0 0 0 0 0 STD5.60
2025-10-31 03:04:07 26 18.40 0.130000 41.649648 41.62752893 0 0 0 0 0 0 0 0 STD5.60
2025-10-31 02:59:05 18 18.60 0.090000 41.649648 41.62752893 0 0 0 0 0 0 0 0 STD5.60
2025-10-31 02:54:03 23 19.50 0.115000 41.649648 41.62752893 0 0 0 0 0 0 0 0 STD5.60
2025-10-31 02:49:01 18 18.50 0.090000 41.649648 41.62752893 0 0 0 0 0 0 0 0 STD5.60
2025-10-31 02:43:59 21 18.90 0.105000 41.649648 41.62752893 0 0 0 0 0 0 0 0 STD5.60
2025-10-31 02:38:58 9 19.30 0.045000 41.649648 41.62752893 0 0 0 0 0 0 0 0 STD5.60
2025-10-31 02:33:53 19 19.70 0.095000 41.649648 41.62752893 0 0 0 0 0 0 0 0 STD5.60
2025-10-31 02:28:51 18 18.60 0.090000 41.649648 41.62752893 0 0 0 0 0 0 0 0 STD5.60
2025-10-31 02:23:48 19 18.90 0.095000 41.649648 41.62752893 0 0 0 0 0 0 0 0 STD5.60
2025-10-31 02:18:46 24 16.60 0.120000 41.649648 41.62752893 0 0 0 0 0 0 0 0 STD5.60
2025-10-31 02:13:44 15 13.70 0.075000 41.649648 41.62752893 0 0 0 0 0 0 0 0 STD5.60
2025-10-31 02:08:42 10 13.80 0.050000 41.649648 41.62752893 0 0 0 0 0 0 0 0 STD5.60
2025-10-31 02:03:40 15 15.20 0.075000 41.649648 41.62752893 0 0 0 0 0 0 0 0 STD5.60
2025-10-31 01:58:38 20 18.70 0.100000 41.649648 41.62752893 0 0 0 0 0 0 0 0 STD5.60
2025-10-31 01:53:35 21 19.80 0.105000 41.649648 41.62752893 0 0 0 0 0 0 0 0 STD5.60
2025-10-31 01:48:33 14 17.30 0.070000 41.649648 41.62752893 0 0 0 0 0 0 0 0 STD5.60
2025-10-31 01:43:31 19 14.90 0.095000 41.649648 41.62752893 0 0 0 0 0 0 0 0 STD5.60
2025-10-31 01:38:27 15 17.10 0.075000 41.649648 41.62752893 0 0 0 0 0 0 0 0 STD5.60
2025-10-31 01:33:25 17 19.20 0.085000 41.649648 41.62752893 0 0 0 0 0 0 0 0 STD5.60
2025-10-31 01:28:23 23 17.90 0.115000 41.649648 41.62752893 0 0 0 0 0 0 0 0 STD5.60
2025-10-31 01:23:20 21 18.90 0.105000 41.649648 41.62752893 0 0 0 0 0 0 0 0 STD5.60
2025-10-31 01:18:18 27 18.50 0.135000 41.649648 41.62752893 0 0 0 0 0 0 0 0 STD5.60
2025-10-31 01:13:16 16 16.90 0.080000 41.649648 41.62752893 0 0 0 0 0 0 0 0 STD5.60
2025-10-31 01:08:14 16 17.30 0.080000 41.649648 41.62752893 0 0 0 0 0 0 0 0 STD5.60
2025-10-31 01:03:12 23 17.30 0.115000 41.649648 41.62752893 0 0 0 0 0 0 0 0 STD5.60
2025-10-31 00:58:10 15 16.50 0.075000 41.649648 41.62752893 0 0 0 0 0 0 0 0 STD5.60
2025-10-31 00:53:08 12 16.60 0.060000 41.649648 41.62752893 0 0 0 0 0 0 0 0 STD5.60
2025-10-31 00:48:06 16 18.40 0.080000 41.649648 41.62752893 0 0 0 0 0 0 0 0 STD5.60
2025-10-31 00:43:03 18 18.20 0.090000 41.649648 41.62752893 0 0 0 0 0 0 0 0 STD5.60
2025-10-31 00:37:58 17 17.20 0.085000 41.649648 41.62752893 0 0 0 0 0 0 0 0 STD5.60
2025-10-31 00:32:56 12 18.00 0.060000 41.649648 41.62752893 0 0 0 0 0 0 0 0 STD5.60
2025-10-31 00:27:54 21 17.60 0.105000 41.649648 41.62752893 0 0 0 0 0 0 0 0 STD5.60
2025-10-31 00:22:51 21 18.20 0.105000 41.649648 41.62752893 0 0 0 0 0 0 0 0 STD5.60
2025-10-31 00:17:50 23 18.10 0.115000 41.649648 41.62752893 0 0 0 0 0 0 0 0 STD5.60
2025-10-31 00:12:47 16 17.00 0.080000 41.649648 41.62752893 0 0 0 0 0 0 0 0 STD5.60
2025-10-31 00:07:45 20 20.20 0.100000 41.649648 41.62752893 0 0 0 0 0 0 0 0 STD5.60
2025-10-31 00:02:43 27 19.60 0.135000 41.649648 41.62752893 0 0 0 0 0 0 0 0 STD5.60
2025-10-30 23:57:41 21 18.10 0.105000 41.649648 41.62752893 0 0 0 0 0 0 0 0 STD5.60
2025-10-30 23:52:38 10 19.70 0.050000 41.649648 41.62752893 0 0 0 0 0 0 0 0 STD5.60
2025-10-30 23:47:36 17 18.80 0.085000 41.649648 41.62752893 0 0 0 0 0 0 0 0 STD5.60
Geiger Counter World Map       A real time radiation map.     Copyright 2015 All rights reserved.